createdAt,value
2019-05-26T00:00:32.205Z,5.33
2019-05-26T00:03:01.036Z,6.07
2019-05-26T00:05:29.968Z,8.53
2019-05-26T00:07:58.984Z,3.80
2019-05-26T00:10:27.954Z,8.50
2019-05-26T00:12:56.729Z,6.77
2019-05-26T00:15:25.885Z,4.57
2019-05-26T00:17:55.072Z,5.83
2019-05-26T00:20:23.863Z,8.30
2019-05-26T00:22:52.761Z,8.00
2019-05-26T00:25:21.634Z,6.57
2019-05-26T00:27:50.663Z,5.37
2019-05-26T00:30:20.345Z,7.20
2019-05-26T00:32:49.217Z,7.80
2019-05-26T00:35:18.353Z,7.60
2019-05-26T00:37:50.005Z,5.20
2019-05-26T00:40:17.990Z,4.97
2019-05-26T00:42:46.924Z,10.60
2019-05-26T00:45:16.350Z,7.67
2019-05-26T00:47:45.306Z,6.40
2019-05-26T00:50:14.790Z,7.60
2019-05-26T00:52:43.676Z,6.13
2019-05-26T00:55:12.734Z,8.20
2019-05-26T00:57:41.705Z,5.03
2019-05-26T01:00:11.107Z,5.47
2019-05-26T01:02:40.451Z,5.43
2019-05-26T01:05:09.793Z,6.90
2019-05-26T01:07:38.805Z,7.20
2019-05-26T01:10:09.817Z,7.93
2019-05-26T01:12:39.184Z,5.93
2019-05-26T01:15:09.695Z,6.60
2019-05-26T01:17:38.620Z,6.83
2019-05-26T01:20:08.883Z,6.03
2019-05-26T01:22:37.795Z,7.97
2019-05-26T01:25:06.918Z,4.97
2019-05-26T01:27:35.848Z,5.67
2019-05-26T01:30:05.148Z,8.33
2019-05-26T01:32:34.399Z,6.93
2019-05-26T01:35:03.376Z,5.00
2019-05-26T01:37:32.466Z,6.20
2019-05-26T01:40:01.688Z,10.00
2019-05-26T01:42:32.253Z,6.20
2019-05-26T01:45:01.169Z,7.40
2019-05-26T01:47:30.313Z,8.17
2019-05-26T01:49:59.409Z,8.03
2019-05-26T01:52:28.604Z,7.67
2019-05-26T01:54:57.790Z,4.60
2019-05-26T01:57:26.701Z,9.07
2019-05-26T01:59:55.502Z,10.10
2019-05-26T02:02:24.388Z,10.07
2019-05-26T02:04:53.876Z,5.93
2019-05-26T02:07:23.178Z,9.07
2019-05-26T02:09:52.075Z,5.10
2019-05-26T02:12:20.881Z,6.70
2019-05-26T02:14:49.747Z,6.63
2019-05-26T02:17:19.035Z,6.67
2019-05-26T02:19:47.895Z,5.60
2019-05-26T02:22:16.983Z,6.27
2019-05-26T02:24:45.983Z,4.90
2019-05-26T02:27:15.077Z,7.77
2019-05-26T02:29:43.905Z,7.20
2019-05-26T02:32:13.428Z,6.07
2019-05-26T02:34:42.633Z,7.23
2019-05-26T02:37:11.464Z,7.10
2019-05-26T02:39:40.350Z,6.90
2019-05-26T02:42:09.976Z,12.33
2019-05-26T02:44:38.968Z,7.20
2019-05-26T02:47:08.142Z,5.80
2019-05-26T02:49:37.117Z,7.63
2019-05-26T02:52:05.992Z,7.37
2019-05-26T02:54:34.332Z,8.50
2019-05-26T02:57:03.324Z,8.23
2019-05-26T02:59:32.210Z,10.47
2019-05-26T03:02:04.277Z,11.27
2019-05-26T03:04:31.872Z,9.27
2019-05-26T03:07:03.501Z,6.63
2019-05-26T03:09:34.266Z,6.13
2019-05-26T03:12:04.184Z,6.53
2019-05-26T03:14:35.098Z,6.37
2019-05-26T03:17:04.852Z,5.67
2019-05-26T03:19:35.457Z,6.50
2019-05-26T03:22:04.801Z,7.17
2019-05-26T03:24:34.364Z,5.00
2019-05-26T03:27:03.343Z,8.33
2019-05-26T03:29:32.459Z,7.43
2019-05-26T03:32:01.708Z,8.27
2019-05-26T03:34:30.796Z,6.50
2019-05-26T03:36:59.621Z,11.70
2019-05-26T03:39:43.221Z,10.50
2019-05-26T03:41:59.063Z,10.23
2019-05-26T03:44:28.141Z,8.80
2019-05-26T03:46:56.960Z,10.93
2019-05-26T03:49:25.777Z,9.47
2019-05-26T03:51:54.680Z,11.23
2019-05-26T03:54:23.609Z,14.33
2019-05-26T03:56:52.425Z,8.67
2019-05-26T03:59:21.498Z,12.40
2019-05-26T04:01:50.574Z,13.50
2019-05-26T04:04:19.608Z,10.60
2019-05-26T04:06:48.452Z,9.27
2019-05-26T04:09:17.652Z,16.07
2019-05-26T04:11:46.461Z,8.57
2019-05-26T04:14:15.256Z,15.50
2019-05-26T04:16:44.495Z,13.97
2019-05-26T04:19:13.376Z,12.33
2019-05-26T04:21:42.204Z,12.13
2019-05-26T04:24:11.195Z,7.50
2019-05-26T04:26:40.140Z,8.20
2019-05-26T04:29:09.159Z,11.60
2019-05-26T04:31:38.133Z,11.00
2019-05-26T04:34:07.159Z,12.07
2019-05-26T04:36:37.067Z,9.07
2019-05-26T04:39:07.359Z,9.00
2019-05-26T04:41:36.251Z,10.43
2019-05-26T04:44:05.561Z,8.83
2019-05-26T04:46:34.514Z,11.17
2019-05-26T04:49:03.669Z,11.60
2019-05-26T04:51:32.553Z,7.43
2019-05-26T04:54:01.380Z,8.87
2019-05-26T04:56:30.345Z,12.80
2019-05-26T04:58:59.406Z,9.50
2019-05-26T05:01:28.271Z,9.53
2019-05-26T05:03:57.348Z,11.93
2019-05-26T05:06:26.709Z,12.97
2019-05-26T05:08:55.648Z,10.03
2019-05-26T05:11:24.402Z,12.00
2019-05-26T05:13:53.989Z,11.07
2019-05-26T05:16:23.358Z,13.50
2019-05-26T05:18:52.249Z,8.47
2019-05-26T05:21:21.744Z,8.90
2019-05-26T05:23:50.896Z,12.53
2019-05-26T05:26:19.983Z,8.87
2019-05-26T05:28:48.911Z,12.07
2019-05-26T05:31:21.083Z,12.67
2019-05-26T05:33:49.995Z,11.60
2019-05-26T05:36:18.819Z,10.17
2019-05-26T05:38:48.072Z,9.77
2019-05-26T05:41:17.347Z,9.77
2019-05-26T05:43:46.539Z,11.80
2019-05-26T05:46:15.547Z,6.37
2019-05-26T05:48:44.639Z,8.97
2019-05-26T05:51:13.680Z,7.97
2019-05-26T05:53:42.661Z,8.30
2019-05-26T05:56:11.635Z,9.83
2019-05-26T05:58:40.457Z,9.77
2019-05-26T06:01:09.638Z,9.17
2019-05-26T06:03:38.546Z,9.90
2019-05-26T06:06:07.706Z,11.47
2019-05-26T06:08:36.611Z,11.13
2019-05-26T06:11:15.849Z,12.73
2019-05-26T06:13:36.336Z,11.30
2019-05-26T06:16:05.335Z,9.43
2019-05-26T06:18:34.894Z,8.43
2019-05-26T06:21:04.455Z,12.90
2019-05-26T06:23:36.666Z,10.60
2019-05-26T06:26:04.295Z,11.20
2019-05-26T06:28:36.493Z,8.83
2019-05-26T06:31:05.531Z,13.20
2019-05-26T06:33:34.571Z,12.43
2019-05-26T06:36:03.799Z,10.27
2019-05-26T06:38:33.222Z,13.20
2019-05-26T06:41:02.102Z,15.40
2019-05-26T06:43:31.016Z,15.07
2019-05-26T06:45:59.829Z,25.60
2019-05-26T06:48:28.765Z,13.63
2019-05-26T06:50:57.103Z,9.30
2019-05-26T06:53:26.160Z,10.70
2019-05-26T06:55:55.330Z,13.23
2019-05-26T06:58:24.206Z,13.90
2019-05-26T07:00:53.615Z,13.63
2019-05-26T07:03:23.056Z,13.40
2019-05-26T07:05:51.843Z,19.80
2019-05-26T07:08:20.819Z,16.43
2019-05-26T07:10:49.939Z,15.67
2019-05-26T07:13:18.833Z,13.77
2019-05-26T07:15:47.718Z,17.23
2019-05-26T07:18:16.599Z,13.20
2019-05-26T07:20:45.437Z,13.53
2019-05-26T07:23:14.413Z,20.20
2019-05-26T07:25:43.343Z,16.80
2019-05-26T07:28:12.664Z,17.03
2019-05-26T07:30:41.562Z,15.50
2019-05-26T07:33:10.412Z,16.83
2019-05-26T07:35:39.538Z,15.03
2019-05-26T07:38:08.603Z,14.87
2019-05-26T07:40:37.659Z,16.93
2019-05-26T07:43:06.527Z,13.80
2019-05-26T07:45:35.595Z,15.13
2019-05-26T07:48:04.567Z,13.80
2019-05-26T07:50:33.488Z,13.60
2019-05-26T07:53:02.608Z,21.73
2019-05-26T07:55:31.862Z,16.53
2019-05-26T07:58:02.609Z,14.47
2019-05-26T08:00:31.535Z,14.63
2019-05-26T08:03:00.623Z,12.77
2019-05-26T08:05:29.816Z,16.33
2019-05-26T08:08:12.033Z,16.70
2019-05-26T08:10:29.803Z,11.30
2019-05-26T08:12:58.670Z,14.93
2019-05-26T08:15:27.923Z,14.23
2019-05-26T08:17:57.158Z,13.73
2019-05-26T08:20:26.232Z,10.80
2019-05-26T08:22:55.115Z,11.80
2019-05-26T08:25:24.328Z,14.20
2019-05-26T08:27:53.608Z,13.20
2019-05-26T08:30:22.812Z,13.03
2019-05-26T08:32:51.704Z,10.70
2019-05-26T08:35:20.919Z,14.83
2019-05-26T08:37:49.773Z,12.20
2019-05-26T08:40:19.050Z,8.57
2019-05-26T08:42:49.540Z,9.53
2019-05-26T08:45:21.829Z,10.90
2019-05-26T08:47:50.665Z,11.40
2019-05-26T08:50:20.069Z,10.40
2019-05-26T08:52:48.969Z,5.30
2019-05-26T08:55:17.953Z,7.57
2019-05-26T08:57:46.866Z,9.67
2019-05-26T09:00:18.175Z,8.67
2019-05-26T09:02:47.582Z,14.80
2019-05-26T09:05:18.369Z,6.57
2019-05-26T09:07:47.881Z,7.53
2019-05-26T09:10:16.416Z,10.10
2019-05-26T09:12:59.792Z,9.77
2019-05-26T09:15:16.485Z,6.63
2019-05-26T09:17:46.120Z,9.80
2019-05-26T09:20:15.125Z,7.90
2019-05-26T09:22:44.316Z,7.30
2019-05-26T09:25:13.800Z,5.00
2019-05-26T09:27:43.033Z,7.70
2019-05-26T09:30:11.648Z,6.30
2019-05-26T09:32:40.835Z,6.20
2019-05-26T09:35:10.107Z,4.77
2019-05-26T09:37:39.101Z,5.60
2019-05-26T09:40:08.947Z,9.13
2019-05-26T09:42:38.161Z,9.93
2019-05-26T09:45:10.791Z,5.37
2019-05-26T09:47:40.013Z,6.80
2019-05-26T09:50:09.634Z,7.07
2019-05-26T09:52:38.875Z,5.93
2019-05-26T09:55:08.281Z,6.10
2019-05-26T09:57:37.717Z,8.93
2019-05-26T10:00:07.716Z,5.03
2019-05-26T10:02:36.813Z,6.13
2019-05-26T10:05:07.041Z,5.30
2019-05-26T10:07:37.672Z,7.40
2019-05-26T10:10:07.552Z,5.63
2019-05-26T10:12:36.912Z,8.07
2019-05-26T10:15:08.073Z,3.93
2019-05-26T10:17:37.568Z,5.40
2019-05-26T10:20:07.493Z,8.17
2019-05-26T10:22:36.413Z,6.00
2019-05-26T10:25:05.983Z,10.13
2019-05-26T10:27:34.933Z,4.30
2019-05-26T10:30:04.449Z,5.60
2019-05-26T10:32:34.895Z,4.97
2019-05-26T10:35:04.239Z,5.37
2019-05-26T10:37:33.099Z,5.33
2019-05-26T10:40:02.353Z,6.50
2019-05-26T10:42:31.673Z,4.30
2019-05-26T10:45:00.481Z,5.90
2019-05-26T10:47:29.748Z,5.77
2019-05-26T10:49:59.083Z,7.10
2019-05-26T10:52:27.892Z,5.40
2019-05-26T10:54:56.801Z,5.60
2019-05-26T10:57:26.172Z,5.23
2019-05-26T10:59:54.971Z,3.73
2019-05-26T11:02:23.827Z,5.27
2019-05-26T11:04:53.107Z,4.10
2019-05-26T11:07:22.344Z,6.10
2019-05-26T11:09:51.488Z,5.00
2019-05-26T11:12:20.418Z,3.20
2019-05-26T11:14:49.492Z,3.37
2019-05-26T11:17:18.798Z,3.60
2019-05-26T11:19:47.719Z,4.30
2019-05-26T11:22:16.622Z,2.70
2019-05-26T11:24:45.569Z,3.40
2019-05-26T11:27:15.191Z,5.10
2019-05-26T11:29:44.303Z,3.17
2019-05-26T11:32:13.091Z,4.00
2019-05-26T11:34:42.374Z,3.57
2019-05-26T11:37:11.463Z,3.07
2019-05-26T11:39:40.570Z,2.93
2019-05-26T11:42:13.385Z,3.10
2019-05-26T11:44:40.495Z,3.30
2019-05-26T11:47:09.450Z,5.50
2019-05-26T11:49:38.577Z,6.30
2019-05-26T11:52:07.990Z,4.20
2019-05-26T11:54:37.015Z,4.97
2019-05-26T11:57:06.227Z,10.40
2019-05-26T11:59:35.122Z,6.17
2019-05-26T12:02:04.153Z,4.30
2019-05-26T12:04:33.068Z,5.20
2019-05-26T12:07:04.335Z,5.80
2019-05-26T12:09:32.501Z,5.50
2019-05-26T12:12:01.752Z,4.40
2019-05-26T12:14:34.656Z,9.07
2019-05-26T12:17:01.613Z,7.03
2019-05-26T12:19:30.722Z,6.53
2019-05-26T12:21:59.600Z,6.93
2019-05-26T12:24:28.800Z,9.67
2019-05-26T12:26:57.950Z,5.53
2019-05-26T12:29:26.858Z,4.40
2019-05-26T12:31:55.698Z,7.50
2019-05-26T12:34:24.497Z,7.37
2019-05-26T12:36:53.818Z,5.97
2019-05-26T12:39:22.718Z,4.63
2019-05-26T12:41:51.896Z,4.90
2019-05-26T12:44:20.848Z,3.53
2019-05-26T12:46:49.641Z,4.30
2019-05-26T12:49:18.522Z,10.63
2019-05-26T12:51:47.504Z,11.00
2019-05-26T12:54:16.445Z,4.67
2019-05-26T12:56:45.339Z,7.10
2019-05-26T12:59:14.275Z,4.40
2019-05-26T13:01:45.612Z,4.97
2019-05-26T13:04:14.859Z,4.37
2019-05-26T13:06:43.739Z,4.27
2019-05-26T13:09:12.891Z,4.63
2019-05-26T13:11:42.104Z,4.10
2019-05-26T13:14:11.339Z,6.30
2019-05-26T13:16:40.432Z,7.30
2019-05-26T13:19:09.304Z,3.43
2019-05-26T13:21:38.166Z,3.83
2019-05-26T13:24:07.156Z,3.53
2019-05-26T13:26:36.455Z,2.70
2019-05-26T13:29:05.462Z,3.77
2019-05-26T13:31:34.363Z,3.43
2019-05-26T13:34:03.337Z,6.13
2019-05-26T13:36:32.175Z,5.70
2019-05-26T13:39:01.777Z,2.73
2019-05-26T13:41:31.014Z,6.33
2019-05-26T13:44:01.169Z,3.77
2019-05-26T13:46:30.037Z,4.73
2019-05-26T13:48:58.951Z,9.50
2019-05-26T13:51:27.819Z,3.20
2019-05-26T13:53:56.963Z,2.30
2019-05-26T13:56:25.952Z,2.40
2019-05-26T13:58:54.839Z,2.53
2019-05-26T14:01:23.775Z,4.03
2019-05-26T14:03:53.152Z,4.90
2019-05-26T14:06:22.251Z,2.83
2019-05-26T14:08:51.138Z,2.70
2019-05-26T14:11:20.589Z,3.60
2019-05-26T14:13:49.472Z,2.97
2019-05-26T14:16:19.530Z,2.33
2019-05-26T14:18:50.356Z,5.13
2019-05-26T14:21:19.304Z,9.83
2019-05-26T14:23:48.235Z,1.80
2019-05-26T14:26:17.215Z,4.10
2019-05-26T14:28:46.392Z,2.97
2019-05-26T14:31:15.232Z,3.13
2019-05-26T14:33:44.204Z,2.60
2019-05-26T14:36:13.445Z,2.40
2019-05-26T14:38:43.739Z,3.23
2019-05-26T14:41:13.161Z,2.53
2019-05-26T14:43:42.282Z,2.50
2019-05-26T14:46:11.255Z,2.33
2019-05-26T14:48:40.077Z,1.90
2019-05-26T14:51:08.908Z,2.33
2019-05-26T14:53:37.764Z,2.00
2019-05-26T14:56:06.779Z,2.50
2019-05-26T14:58:35.620Z,2.40
2019-05-26T15:01:04.504Z,1.70
2019-05-26T15:03:33.721Z,3.10
2019-05-26T15:06:06.066Z,2.53
2019-05-26T15:08:33.573Z,1.83
2019-05-26T15:11:02.808Z,2.03
2019-05-26T15:13:31.758Z,1.67
2019-05-26T15:16:09.252Z,1.43
2019-05-26T15:18:31.807Z,1.87
2019-05-26T15:21:00.797Z,3.00
2019-05-26T15:23:29.700Z,2.83
2019-05-26T15:25:58.958Z,2.27
2019-05-26T15:28:30.355Z,1.60
2019-05-26T15:30:58.847Z,2.23
2019-05-26T15:33:28.100Z,2.40
2019-05-26T15:35:57.232Z,2.50
2019-05-26T15:38:40.088Z,2.77
2019-05-26T15:40:56.776Z,2.57
2019-05-26T15:43:25.611Z,2.63
2019-05-26T15:45:54.955Z,2.67
2019-05-26T15:48:24.252Z,1.63
2019-05-26T15:50:53.708Z,2.87
2019-05-26T15:53:23.100Z,2.00
2019-05-26T15:55:52.099Z,5.37
2019-05-26T15:58:21.167Z,2.60
2019-05-26T16:00:50.250Z,2.13
2019-05-26T16:03:19.220Z,3.30
2019-05-26T16:05:48.141Z,2.10
2019-05-26T16:08:17.197Z,1.70
2019-05-26T16:10:46.791Z,2.60
2019-05-26T16:13:15.670Z,2.90
2019-05-26T16:15:44.881Z,1.50
2019-05-26T16:18:14.130Z,2.43
2019-05-26T16:20:43.048Z,2.70
2019-05-26T16:23:12.112Z,3.37
2019-05-26T16:25:41.367Z,2.80
2019-05-26T16:28:10.656Z,2.50
2019-05-26T16:30:39.694Z,3.43
2019-05-26T16:33:08.856Z,2.30
2019-05-26T16:35:37.812Z,2.50
2019-05-26T16:38:07.152Z,2.33
2019-05-26T16:40:36.272Z,4.03
2019-05-26T16:43:05.290Z,2.57
2019-05-26T16:45:37.035Z,2.50
2019-05-26T16:48:04.795Z,2.47
2019-05-26T16:50:35.032Z,3.13
2019-05-26T16:53:04.691Z,1.50
2019-05-26T16:55:33.653Z,4.00
2019-05-26T16:58:06.547Z,2.40
2019-05-26T17:00:35.983Z,1.70
2019-05-26T17:03:05.351Z,2.30
2019-05-26T17:05:34.888Z,4.63
2019-05-26T17:08:03.814Z,2.73
2019-05-26T17:10:33.094Z,2.50
2019-05-26T17:13:01.991Z,2.40
2019-05-26T17:15:30.358Z,2.27
2019-05-26T17:17:59.505Z,9.60
2019-05-26T17:20:29.304Z,2.53
2019-05-26T17:22:58.497Z,3.10
2019-05-26T17:25:27.561Z,2.10
2019-05-26T17:27:56.822Z,3.20
2019-05-26T17:30:25.801Z,4.20
2019-05-26T17:32:55.145Z,3.57
2019-05-26T17:35:24.015Z,3.17
2019-05-26T17:37:53.258Z,2.20
2019-05-26T17:40:23.363Z,2.53
2019-05-26T17:42:52.450Z,3.30
2019-05-26T17:45:21.777Z,3.47
2019-05-26T17:47:51.459Z,4.27
2019-05-26T17:50:20.738Z,3.00
2019-05-26T17:52:49.937Z,3.60
2019-05-26T17:55:23.625Z,3.67
2019-05-26T17:57:52.780Z,3.40
2019-05-26T18:00:22.648Z,2.40
2019-05-26T18:02:51.559Z,3.30
2019-05-26T18:05:22.774Z,3.10
2019-05-26T18:07:51.537Z,3.70
2019-05-26T18:10:21.043Z,3.27
2019-05-26T18:12:49.863Z,2.00
2019-05-26T18:15:19.624Z,2.63
2019-05-26T18:17:48.851Z,4.83
2019-05-26T18:20:18.336Z,2.37
2019-05-26T18:22:47.450Z,3.37
2019-05-26T18:25:16.408Z,3.00
2019-05-26T18:27:45.627Z,2.60
2019-05-26T18:30:14.982Z,3.37
2019-05-26T18:32:44.063Z,2.80
2019-05-26T18:35:16.055Z,3.80
2019-05-26T18:37:45.677Z,3.73
2019-05-26T18:40:14.992Z,3.03
2019-05-26T18:42:44.710Z,2.60
2019-05-26T18:45:15.327Z,3.90
2019-05-26T18:47:44.771Z,2.80
2019-05-26T18:50:14.663Z,2.20
2019-05-26T18:52:48.298Z,3.37
2019-05-26T18:55:17.464Z,2.40
2019-05-26T18:57:46.815Z,2.03
2019-05-26T19:00:16.379Z,2.57
2019-05-26T19:02:45.323Z,4.70
2019-05-26T19:05:14.954Z,3.07
2019-05-26T19:07:44.446Z,7.70
2019-05-26T19:10:14.170Z,2.73
2019-05-26T19:12:44.131Z,3.33
2019-05-26T19:15:14.128Z,2.00
2019-05-26T19:17:43.150Z,3.43
2019-05-26T19:20:16.803Z,1.97
2019-05-26T19:22:43.427Z,5.93
2019-05-26T19:25:13.280Z,2.80
2019-05-26T19:27:43.196Z,1.53
2019-05-26T19:30:13.047Z,2.50
2019-05-26T19:32:42.395Z,2.80
2019-05-26T19:35:11.868Z,2.77
2019-05-26T19:37:41.243Z,2.47
2019-05-26T19:40:10.957Z,1.80
2019-05-26T19:42:39.921Z,2.30
2019-05-26T19:45:09.049Z,2.00
2019-05-26T19:47:38.383Z,3.07
2019-05-26T19:50:07.920Z,2.20
2019-05-26T19:52:37.271Z,3.03
2019-05-26T19:55:06.544Z,3.00
2019-05-26T19:57:40.265Z,3.33
2019-05-26T20:00:10.378Z,3.80
2019-05-26T20:02:38.855Z,3.73
2019-05-26T20:05:09.213Z,2.63
2019-05-26T20:07:39.469Z,1.60
2019-05-26T20:10:08.942Z,1.60
2019-05-26T20:12:38.181Z,3.50
2019-05-26T20:15:08.799Z,2.07
2019-05-26T20:17:37.810Z,2.40
2019-05-26T20:20:07.655Z,1.60
2019-05-26T20:22:38.562Z,4.80
2019-05-26T20:25:09.625Z,2.50
2019-05-26T20:27:38.779Z,2.17
2019-05-26T20:30:08.985Z,1.90
2019-05-26T20:32:37.946Z,2.30
2019-05-26T20:35:07.208Z,2.23
2019-05-26T20:37:36.441Z,1.70
2019-05-26T20:40:05.815Z,2.20
2019-05-26T20:42:34.847Z,1.90
2019-05-26T20:45:04.120Z,3.23
2019-05-26T20:47:37.819Z,4.80
2019-05-26T20:50:07.249Z,3.00
2019-05-26T20:52:36.691Z,1.97
2019-05-26T20:55:05.862Z,1.80
2019-05-26T20:57:35.303Z,2.60
2019-05-26T21:00:05.646Z,2.70
2019-05-26T21:02:35.348Z,1.77
2019-05-26T21:05:04.724Z,2.90
2019-05-26T21:07:34.197Z,4.37
2019-05-26T21:10:03.553Z,2.73
2019-05-26T21:12:32.852Z,2.17
2019-05-26T21:15:01.840Z,2.17
2019-05-26T21:17:31.144Z,2.30
2019-05-26T21:19:59.974Z,3.10
2019-05-26T21:22:28.860Z,3.23
2019-05-26T21:24:57.816Z,2.33
2019-05-26T21:27:26.723Z,1.60
2019-05-26T21:29:55.711Z,2.53
2019-05-26T21:32:24.631Z,2.27
2019-05-26T21:34:54.266Z,1.50
2019-05-26T21:37:23.739Z,2.40
2019-05-26T21:39:52.635Z,1.97
2019-05-26T21:42:21.831Z,2.53
2019-05-26T21:44:50.669Z,2.13
2019-05-26T21:47:19.618Z,2.30
2019-05-26T21:49:48.614Z,3.90
2019-05-26T21:52:17.834Z,2.27
2019-05-26T21:54:46.728Z,3.63
2019-05-26T21:57:15.546Z,2.37
2019-05-26T21:59:44.665Z,5.10
2019-05-26T22:02:13.655Z,3.27
2019-05-26T22:04:42.970Z,3.20
2019-05-26T22:07:12.045Z,3.20
2019-05-26T22:09:41.423Z,2.00
2019-05-26T22:12:10.529Z,3.77
2019-05-26T22:14:39.424Z,2.20
2019-05-26T22:17:08.619Z,3.13
2019-05-26T22:19:37.887Z,2.93
2019-05-26T22:22:07.453Z,13.10
2019-05-26T22:24:36.282Z,2.80
2019-05-26T22:27:05.388Z,5.33
2019-05-26T22:29:34.427Z,3.00
2019-05-26T22:32:03.385Z,2.90
2019-05-26T22:34:32.229Z,2.50
2019-05-26T22:37:01.639Z,5.10
2019-05-26T22:39:30.580Z,3.33
2019-05-26T22:41:59.417Z,4.70
2019-05-26T22:44:28.362Z,4.00
2019-05-26T22:46:57.591Z,2.57
2019-05-26T22:49:26.796Z,3.23
2019-05-26T22:51:55.747Z,3.70
2019-05-26T22:54:25.017Z,2.90
2019-05-26T22:56:54.054Z,2.47
2019-05-26T22:59:23.167Z,3.00
2019-05-26T23:01:52.484Z,2.80
2019-05-26T23:04:21.670Z,2.47
2019-05-26T23:06:50.801Z,3.57
2019-05-26T23:09:19.864Z,2.80
2019-05-26T23:11:49.044Z,3.40
2019-05-26T23:14:17.848Z,2.47
2019-05-26T23:16:49.128Z,2.23
2019-05-26T23:19:19.795Z,2.00
2019-05-26T23:21:48.819Z,2.53
2019-05-26T23:24:17.714Z,5.80
2019-05-26T23:26:46.667Z,3.00
2019-05-26T23:29:15.583Z,2.50
2019-05-26T23:31:44.713Z,4.13
2019-05-26T23:34:13.904Z,3.50
2019-05-26T23:36:43.022Z,4.40
2019-05-26T23:39:12.170Z,2.53
2019-05-26T23:41:41.520Z,2.80
2019-05-26T23:44:10.694Z,3.00
2019-05-26T23:46:39.583Z,4.30
2019-05-26T23:49:08.531Z,2.33
2019-05-26T23:51:37.413Z,3.53
2019-05-26T23:54:06.447Z,3.53
2019-05-26T23:56:35.343Z,2.33
2019-05-26T23:59:04.244Z,3.63
